sensor_id;sensor_type;location;lat;lon;timestamp;pressure;altitude;pressure_sealevel;temperature;humidity
49915;BME280;35806;47.958;13.158;2023-02-17T00:01:32;95575.36;;;6.00;43.11
49915;BME280;35806;47.958;13.158;2023-02-17T00:03:59;95571.23;;;6.00;43.02
49915;BME280;35806;47.958;13.158;2023-02-17T00:06:29;95569.79;;;5.87;43.67
49915;BME280;35806;47.958;13.158;2023-02-17T00:09:01;95566.72;;;5.05;44.79
49915;BME280;35806;47.958;13.158;2023-02-17T00:11:28;95559.95;;;5.64;43.82
49915;BME280;35806;47.958;13.158;2023-02-17T00:13:55;95564.62;;;5.91;43.40
49915;BME280;35806;47.958;13.158;2023-02-17T00:16:24;95566.60;;;5.75;43.68
49915;BME280;35806;47.958;13.158;2023-02-17T00:18:54;95565.20;;;5.95;43.56
49915;BME280;35806;47.958;13.158;2023-02-17T00:21:24;95570.16;;;6.34;43.20
49915;BME280;35806;47.958;13.158;2023-02-17T00:23:52;95563.16;;;5.46;44.24
49915;BME280;35806;47.958;13.158;2023-02-17T00:26:20;95567.78;;;5.63;43.87
49915;BME280;35806;47.958;13.158;2023-02-17T00:28:48;95563.94;;;5.68;44.48
49915;BME280;35806;47.958;13.158;2023-02-17T00:31:18;95563.72;;;6.26;43.68
49915;BME280;35806;47.958;13.158;2023-02-17T00:33:46;95558.90;;;5.75;44.11
49915;BME280;35806;47.958;13.158;2023-02-17T00:36:15;95554.67;;;5.55;44.43
49915;BME280;35806;47.958;13.158;2023-02-17T00:38:42;95557.09;;;5.45;44.09
49915;BME280;35806;47.958;13.158;2023-02-17T00:41:09;95558.07;;;5.45;44.76
49915;BME280;35806;47.958;13.158;2023-02-17T00:43:36;95557.01;;;5.85;44.26
49915;BME280;35806;47.958;13.158;2023-02-17T00:46:04;95556.86;;;5.38;44.51
49915;BME280;35806;47.958;13.158;2023-02-17T00:48:32;95554.43;;;5.28;44.59
49915;BME280;35806;47.958;13.158;2023-02-17T00:50:59;95556.63;;;5.57;44.66
49915;BME280;35806;47.958;13.158;2023-02-17T00:53:27;95564.01;;;5.51;44.40
49915;BME280;35806;47.958;13.158;2023-02-17T00:55:54;95564.29;;;5.39;44.32
49915;BME280;35806;47.958;13.158;2023-02-17T00:58:22;95563.12;;;5.52;45.34
49915;BME280;35806;47.958;13.158;2023-02-17T01:00:49;95564.51;;;5.33;44.64
49915;BME280;35806;47.958;13.158;2023-02-17T01:03:17;95567.23;;;5.37;45.68
49915;BME280;35806;47.958;13.158;2023-02-17T01:05:46;95563.35;;;5.63;45.18
49915;BME280;35806;47.958;13.158;2023-02-17T01:08:15;95565.59;;;4.87;46.14
49915;BME280;35806;47.958;13.158;2023-02-17T01:10:44;95562.30;;;5.01;45.10
49915;BME280;35806;47.958;13.158;2023-02-17T01:13:13;95566.29;;;5.73;44.10
49915;BME280;35806;47.958;13.158;2023-02-17T01:15:49;95557.16;;;5.74;43.90
49915;BME280;35806;47.958;13.158;2023-02-17T01:18:17;95554.27;;;5.82;43.76
49915;BME280;35806;47.958;13.158;2023-02-17T01:20:45;95554.35;;;5.90;43.91
49915;BME280;35806;47.958;13.158;2023-02-17T01:23:12;95551.79;;;6.15;43.62
49915;BME280;35806;47.958;13.158;2023-02-17T01:25:42;95551.92;;;6.15;43.16
49915;BME280;35806;47.958;13.158;2023-02-17T01:28:14;95544.73;;;6.45;43.11
49915;BME280;35806;47.958;13.158;2023-02-17T01:30:41;95541.66;;;5.76;43.49
49915;BME280;35806;47.958;13.158;2023-02-17T01:33:09;95537.74;;;6.33;42.48
49915;BME280;35806;47.958;13.158;2023-02-17T01:35:36;95534.17;;;5.91;41.89
49915;BME280;35806;47.958;13.158;2023-02-17T01:38:03;95533.55;;;6.55;40.61
49915;BME280;35806;47.958;13.158;2023-02-17T01:40:30;95529.99;;;5.99;41.66
49915;BME280;35806;47.958;13.158;2023-02-17T01:42:58;95523.96;;;6.34;42.10
49915;BME280;35806;47.958;13.158;2023-02-17T01:45:37;95524.24;;;6.76;40.59
49915;BME280;35806;47.958;13.158;2023-02-17T01:48:09;95519.03;;;6.67;40.93
49915;BME280;35806;47.958;13.158;2023-02-17T01:50:41;95511.30;;;6.39;41.27
49915;BME280;35806;47.958;13.158;2023-02-17T01:53:12;95509.97;;;6.53;41.18
49915;BME280;35806;47.958;13.158;2023-02-17T01:55:40;95508.85;;;6.41;41.50
49915;BME280;35806;47.958;13.158;2023-02-17T01:58:10;95505.47;;;6.51;41.85
49915;BME280;35806;47.958;13.158;2023-02-17T02:16:02;95499.24;;;6.49;40.71
49915;BME280;35806;47.958;13.158;2023-02-17T02:18:43;95500.91;;;6.40;41.30
49915;BME280;35806;47.958;13.158;2023-02-17T02:22:39;95501.49;;;6.90;41.07
49915;BME280;35806;47.958;13.158;2023-02-17T02:25:27;95498.61;;;6.70;41.20
49915;BME280;35806;47.958;13.158;2023-02-17T02:28:09;95498.19;;;6.52;41.14
49915;BME280;35806;47.958;13.158;2023-02-17T02:30:52;95496.85;;;6.31;40.66
49915;BME280;35806;47.958;13.158;2023-02-17T02:33:25;95501.02;;;6.59;40.80
49915;BME280;35806;47.958;13.158;2023-02-17T02:35:59;95495.97;;;6.41;41.23
49915;BME280;35806;47.958;13.158;2023-02-17T02:38:31;95502.90;;;6.48;40.62
49915;BME280;35806;47.958;13.158;2023-02-17T02:41:05;95506.13;;;6.29;41.43
49915;BME280;35806;47.958;13.158;2023-02-17T02:43:35;95503.74;;;6.46;40.96
49915;BME280;35806;47.958;13.158;2023-02-17T02:46:02;95507.12;;;6.59;40.60
49915;BME280;35806;47.958;13.158;2023-02-17T02:48:30;95503.67;;;6.28;40.02
49915;BME280;35806;47.958;13.158;2023-02-17T02:51:10;95501.61;;;6.90;39.42
49915;BME280;35806;47.958;13.158;2023-02-17T02:53:50;95497.31;;;6.84;38.72
49915;BME280;35806;47.958;13.158;2023-02-17T02:56:29;95496.49;;;6.55;37.54
49915;BME280;35806;47.958;13.158;2023-02-17T02:59:08;95496.66;;;6.77;37.91
49915;BME280;35806;47.958;13.158;2023-02-17T03:01:44;95494.90;;;7.16;37.23
49915;BME280;35806;47.958;13.158;2023-02-17T03:04:19;95491.72;;;6.36;38.47
49915;BME280;35806;47.958;13.158;2023-02-17T03:06:52;95491.76;;;7.45;36.86
49915;BME280;35806;47.958;13.158;2023-02-17T03:09:25;95490.84;;;7.22;36.28
49915;BME280;35806;47.958;13.158;2023-02-17T03:11:58;95493.30;;;7.09;36.42
49915;BME280;35806;47.958;13.158;2023-02-17T03:14:26;95490.33;;;6.88;36.91
49915;BME280;35806;47.958;13.158;2023-02-17T03:16:55;95492.13;;;7.00;36.79
49915;BME280;35806;47.958;13.158;2023-02-17T03:19:23;95491.36;;;7.93;35.79
49915;BME280;35806;47.958;13.158;2023-02-17T03:21:54;95489.96;;;7.84;35.22
49915;BME280;35806;47.958;13.158;2023-02-17T03:24:24;95487.74;;;7.69;35.44
49915;BME280;35806;47.958;13.158;2023-02-17T03:26:51;95488.48;;;8.06;35.23
49915;BME280;35806;47.958;13.158;2023-02-17T03:29:19;95486.41;;;7.62;34.98
49915;BME280;35806;47.958;13.158;2023-02-17T03:31:46;95479.57;;;7.62;35.16
49915;BME280;35806;47.958;13.158;2023-02-17T03:34:13;95480.87;;;7.90;35.16
49915;BME280;35806;47.958;13.158;2023-02-17T03:36:40;95483.95;;;7.80;34.97
49915;BME280;35806;47.958;13.158;2023-02-17T03:39:08;95490.02;;;8.07;34.15
49915;BME280;35806;47.958;13.158;2023-02-17T03:41:35;95485.29;;;7.64;34.93
49915;BME280;35806;47.958;13.158;2023-02-17T03:44:03;95483.65;;;7.61;35.21
49915;BME280;35806;47.958;13.158;2023-02-17T03:46:30;95487.30;;;7.93;35.14
49915;BME280;35806;47.958;13.158;2023-02-17T03:49:08;95489.81;;;8.12;34.58
49915;BME280;35806;47.958;13.158;2023-02-17T03:51:35;95496.76;;;6.96;36.56
49915;BME280;35806;47.958;13.158;2023-02-17T03:54:01;95493.23;;;7.59;34.54
49915;BME280;35806;47.958;13.158;2023-02-17T03:56:29;95494.68;;;7.72;34.53
49915;BME280;35806;47.958;13.158;2023-02-17T03:58:56;95486.20;;;7.54;34.58
49915;BME280;35806;47.958;13.158;2023-02-17T04:01:23;95486.52;;;8.12;34.36
49915;BME280;35806;47.958;13.158;2023-02-17T04:03:50;95484.61;;;7.61;34.83
49915;BME280;35806;47.958;13.158;2023-02-17T04:06:18;95489.99;;;7.78;33.55
49915;BME280;35806;47.958;13.158;2023-02-17T04:08:45;95489.05;;;7.44;35.25
49915;BME280;35806;47.958;13.158;2023-02-17T04:11:12;95490.41;;;8.19;33.71
49915;BME280;35806;47.958;13.158;2023-02-17T04:13:40;95492.30;;;7.82;34.57
49915;BME280;35806;47.958;13.158;2023-02-17T04:16:07;95493.80;;;7.95;34.48
49915;BME280;35806;47.958;13.158;2023-02-17T04:18:35;95493.35;;;8.61;34.21
49915;BME280;35806;47.958;13.158;2023-02-17T04:21:02;95496.43;;;8.01;33.98
49915;BME280;35806;47.958;13.158;2023-02-17T04:23:30;95496.98;;;7.98;34.78
49915;BME280;35806;47.958;13.158;2023-02-17T04:25:58;95493.64;;;7.75;34.57
49915;BME280;35806;47.958;13.158;2023-02-17T04:28:25;95495.70;;;8.11;34.06
49915;BME280;35806;47.958;13.158;2023-02-17T04:30:52;95495.17;;;7.87;34.41
49915;BME280;35806;47.958;13.158;2023-02-17T04:33:19;95496.98;;;7.95;33.58
49915;BME280;35806;47.958;13.158;2023-02-17T04:35:47;95490.72;;;8.39;33.15
49915;BME280;35806;47.958;13.158;2023-02-17T04:38:15;95492.69;;;8.00;34.14
49915;BME280;35806;47.958;13.158;2023-02-17T04:40:42;95488.99;;;8.01;34.16
49915;BME280;35806;47.958;13.158;2023-02-17T04:43:10;95492.34;;;8.21;33.80
49915;BME280;35806;47.958;13.158;2023-02-17T04:45:38;95492.08;;;7.84;34.70
49915;BME280;35806;47.958;13.158;2023-02-17T04:48:05;95487.00;;;7.90;34.12
49915;BME280;35806;47.958;13.158;2023-02-17T04:50:33;95486.85;;;8.13;33.69
49915;BME280;35806;47.958;13.158;2023-02-17T04:53:00;95485.56;;;8.12;34.25
49915;BME280;35806;47.958;13.158;2023-02-17T04:55:27;95484.26;;;7.94;33.71
49915;BME280;35806;47.958;13.158;2023-02-17T04:57:55;95482.79;;;8.29;34.28
49915;BME280;35806;47.958;13.158;2023-02-17T05:00:23;95481.71;;;8.30;33.75
49915;BME280;35806;47.958;13.158;2023-02-17T05:02:50;95477.42;;;8.25;34.16
49915;BME280;35806;47.958;13.158;2023-02-17T05:05:18;95477.54;;;8.01;34.57
49915;BME280;35806;47.958;13.158;2023-02-17T05:07:45;95474.00;;;8.43;33.75
49915;BME280;35806;47.958;13.158;2023-02-17T05:10:15;95475.93;;;7.82;35.30
49915;BME280;35806;47.958;13.158;2023-02-17T05:12:43;95475.94;;;7.90;34.15
49915;BME280;35806;47.958;13.158;2023-02-17T05:15:11;95473.31;;;7.99;34.40
49915;BME280;35806;47.958;13.158;2023-02-17T05:17:39;95467.71;;;8.21;34.11
49915;BME280;35806;47.958;13.158;2023-02-17T05:20:08;95470.65;;;7.56;34.57
49915;BME280;35806;47.958;13.158;2023-02-17T05:22:35;95468.78;;;7.98;34.93
49915;BME280;35806;47.958;13.158;2023-02-17T05:25:04;95468.98;;;7.71;34.63
49915;BME280;35806;47.958;13.158;2023-02-17T05:27:32;95471.42;;;7.57;35.10
49915;BME280;35806;47.958;13.158;2023-02-17T05:30:00;95465.79;;;7.22;34.99
49915;BME280;35806;47.958;13.158;2023-02-17T05:32:28;95469.30;;;7.86;34.70
49915;BME280;35806;47.958;13.158;2023-02-17T05:34:54;95463.27;;;7.48;35.49
49915;BME280;35806;47.958;13.158;2023-02-17T05:37:23;95455.99;;;7.60;35.11
49915;BME280;35806;47.958;13.158;2023-02-17T05:39:50;95454.91;;;6.98;36.37
49915;BME280;35806;47.958;13.158;2023-02-17T05:42:17;95454.91;;;8.09;35.49
49915;BME280;35806;47.958;13.158;2023-02-17T05:44:45;95453.92;;;7.45;35.73
49915;BME280;35806;47.958;13.158;2023-02-17T05:47:11;95448.56;;;7.00;36.26
49915;BME280;35806;47.958;13.158;2023-02-17T05:49:38;95448.35;;;6.63;37.75
49915;BME280;35806;47.958;13.158;2023-02-17T05:52:06;95444.04;;;7.10;37.15
49915;BME280;35806;47.958;13.158;2023-02-17T05:54:34;95443.57;;;7.13;36.67
49915;BME280;35806;47.958;13.158;2023-02-17T05:57:01;95445.44;;;7.17;36.79
49915;BME280;35806;47.958;13.158;2023-02-17T05:59:29;95447.22;;;7.33;36.40
49915;BME280;35806;47.958;13.158;2023-02-17T06:01:56;95447.36;;;7.24;36.39
49915;BME280;35806;47.958;13.158;2023-02-17T06:04:24;95446.44;;;7.37;36.43
49915;BME280;35806;47.958;13.158;2023-02-17T06:06:51;95448.11;;;7.08;36.07
49915;BME280;35806;47.958;13.158;2023-02-17T06:09:25;95449.58;;;7.08;36.47
49915;BME280;35806;47.958;13.158;2023-02-17T06:11:53;95450.53;;;7.60;35.78
49915;BME280;35806;47.958;13.158;2023-02-17T06:14:20;95450.18;;;6.87;36.69
49915;BME280;35806;47.958;13.158;2023-02-17T06:16:48;95447.94;;;7.04;36.48
49915;BME280;35806;47.958;13.158;2023-02-17T06:19:15;95441.05;;;6.69;37.64
49915;BME280;35806;47.958;13.158;2023-02-17T06:21:43;95436.76;;;7.56;36.36
49915;BME280;35806;47.958;13.158;2023-02-17T06:24:11;95433.14;;;7.27;36.56
49915;BME280;35806;47.958;13.158;2023-02-17T06:26:38;95430.56;;;8.24;34.77
49915;BME280;35806;47.958;13.158;2023-02-17T06:29:06;95431.15;;;8.00;34.93
49915;BME280;35806;47.958;13.158;2023-02-17T06:31:33;95428.97;;;7.82;35.01
49915;BME280;35806;47.958;13.158;2023-02-17T06:34:00;95435.98;;;7.13;36.02
49915;BME280;35806;47.958;13.158;2023-02-17T06:36:28;95433.54;;;7.36;35.38
49915;BME280;35806;47.958;13.158;2023-02-17T06:38:55;95429.08;;;7.85;35.45
49915;BME280;35806;47.958;13.158;2023-02-17T06:41:23;95431.45;;;7.62;35.25
49915;BME280;35806;47.958;13.158;2023-02-17T06:43:50;95433.38;;;7.75;34.65
49915;BME280;35806;47.958;13.158;2023-02-17T06:46:18;95427.94;;;7.33;35.64
49915;BME280;35806;47.958;13.158;2023-02-17T06:48:47;95423.54;;;7.97;34.76
49915;BME280;35806;47.958;13.158;2023-02-17T06:51:14;95428.06;;;7.72;34.80
49915;BME280;35806;47.958;13.158;2023-02-17T06:53:42;95429.70;;;8.09;34.84
49915;BME280;35806;47.958;13.158;2023-02-17T06:56:09;95419.68;;;7.76;35.10
49915;BME280;35806;47.958;13.158;2023-02-17T06:58:37;95427.18;;;8.26;33.97
49915;BME280;35806;47.958;13.158;2023-02-17T07:01:05;95426.95;;;8.07;34.56
49915;BME280;35806;47.958;13.158;2023-02-17T07:03:32;95429.21;;;7.81;34.62
49915;BME280;35806;47.958;13.158;2023-02-17T07:06:00;95425.15;;;7.59;35.57
49915;BME280;35806;47.958;13.158;2023-02-17T07:08:28;95427.19;;;8.14;34.20
49915;BME280;35806;47.958;13.158;2023-02-17T07:10:55;95431.22;;;7.61;35.06
49915;BME280;35806;47.958;13.158;2023-02-17T07:13:22;95430.84;;;8.03;34.25
49915;BME280;35806;47.958;13.158;2023-02-17T07:15:50;95429.58;;;8.18;34.35
49915;BME280;35806;47.958;13.158;2023-02-17T07:18:17;95434.48;;;7.47;34.84
49915;BME280;35806;47.958;13.158;2023-02-17T07:20:46;95438.92;;;7.74;34.74
49915;BME280;35806;47.958;13.158;2023-02-17T07:23:13;95439.67;;;7.62;34.54
49915;BME280;35806;47.958;13.158;2023-02-17T07:25:42;95439.51;;;7.73;34.90
49915;BME280;35806;47.958;13.158;2023-02-17T07:28:09;95438.44;;;8.00;34.34
49915;BME280;35806;47.958;13.158;2023-02-17T07:30:37;95431.56;;;7.82;35.11
49915;BME280;35806;47.958;13.158;2023-02-17T07:33:05;95437.34;;;7.55;35.31
49915;BME280;35806;47.958;13.158;2023-02-17T07:35:33;95441.06;;;7.75;34.56
49915;BME280;35806;47.958;13.158;2023-02-17T07:38:05;95440.12;;;7.37;34.47
49915;BME280;35806;47.958;13.158;2023-02-17T07:40:32;95446.42;;;7.74;34.69
49915;BME280;35806;47.958;13.158;2023-02-17T07:43:00;95446.51;;;8.04;34.49
49915;BME280;35806;47.958;13.158;2023-02-17T07:45:27;95449.78;;;8.24;33.95
49915;BME280;35806;47.958;13.158;2023-02-17T07:47:55;95447.69;;;8.07;34.47
49915;BME280;35806;47.958;13.158;2023-02-17T07:50:22;95451.11;;;7.94;34.37
49915;BME280;35806;47.958;13.158;2023-02-17T07:52:50;95451.81;;;8.36;33.77
49915;BME280;35806;47.958;13.158;2023-02-17T07:55:17;95448.82;;;8.21;34.04
49915;BME280;35806;47.958;13.158;2023-02-17T07:57:44;95454.83;;;7.78;34.44
49915;BME280;35806;47.958;13.158;2023-02-17T08:00:13;95448.19;;;7.91;34.08
49915;BME280;35806;47.958;13.158;2023-02-17T08:02:40;95441.23;;;8.17;34.02
49915;BME280;35806;47.958;13.158;2023-02-17T08:05:08;95442.93;;;8.37;34.36
49915;BME280;35806;47.958;13.158;2023-02-17T08:07:35;95451.65;;;7.91;34.44
49915;BME280;35806;47.958;13.158;2023-02-17T08:10:03;95445.45;;;7.92;34.41
49915;BME280;35806;47.958;13.158;2023-02-17T08:12:31;95451.33;;;8.51;33.72
49915;BME280;35806;47.958;13.158;2023-02-17T08:14:59;95454.81;;;8.46;33.58
49915;BME280;35806;47.958;13.158;2023-02-17T08:17:26;95458.78;;;8.77;33.61
49915;BME280;35806;47.958;13.158;2023-02-17T08:19:54;95456.06;;;8.56;33.07
49915;BME280;35806;47.958;13.158;2023-02-17T08:22:22;95455.56;;;8.55;33.82
49915;BME280;35806;47.958;13.158;2023-02-17T08:24:49;95462.85;;;8.56;33.77
49915;BME280;35806;47.958;13.158;2023-02-17T08:27:18;95462.14;;;8.83;33.25
49915;BME280;35806;47.958;13.158;2023-02-17T08:29:45;95464.13;;;8.59;34.03
49915;BME280;35806;47.958;13.158;2023-02-17T08:32:15;95465.31;;;8.23;34.37
49915;BME280;35806;47.958;13.158;2023-02-17T08:34:43;95469.87;;;8.35;34.57
49915;BME280;35806;47.958;13.158;2023-02-17T08:37:10;95462.71;;;8.29;35.15
49915;BME280;35806;47.958;13.158;2023-02-17T08:39:38;95478.80;;;7.87;37.28
49915;BME280;35806;47.958;13.158;2023-02-17T08:42:05;95480.39;;;7.38;41.08
49915;BME280;35806;47.958;13.158;2023-02-17T08:44:34;95469.75;;;7.71;42.26
49915;BME280;35806;47.958;13.158;2023-02-17T08:47:02;95466.93;;;7.66;41.67
49915;BME280;35806;47.958;13.158;2023-02-17T08:49:30;95466.81;;;7.41;42.19
49915;BME280;35806;47.958;13.158;2023-02-17T08:51:59;95468.31;;;7.43;43.01
49915;BME280;35806;47.958;13.158;2023-02-17T08:54:26;95470.15;;;7.26;43.72
49915;BME280;35806;47.958;13.158;2023-02-17T08:56:54;95469.90;;;7.14;45.20
49915;BME280;35806;47.958;13.158;2023-02-17T08:59:21;95467.74;;;7.58;45.01
49915;BME280;35806;47.958;13.158;2023-02-17T09:01:49;95470.88;;;7.86;45.07
49915;BME280;35806;47.958;13.158;2023-02-17T09:04:17;95472.06;;;7.98;44.82
49915;BME280;35806;47.958;13.158;2023-02-17T09:06:47;95469.55;;;8.36;43.68
49915;BME280;35806;47.958;13.158;2023-02-17T09:09:18;95478.12;;;8.17;44.71
49915;BME280;35806;47.958;13.158;2023-02-17T09:11:46;95476.95;;;7.81;44.48
49915;BME280;35806;47.958;13.158;2023-02-17T09:14:13;95484.07;;;8.06;44.85
49915;BME280;35806;47.958;13.158;2023-02-17T09:16:41;95477.56;;;8.46;43.46
49915;BME280;35806;47.958;13.158;2023-02-17T09:19:07;95479.64;;;8.45;43.19
49915;BME280;35806;47.958;13.158;2023-02-17T09:21:35;95482.95;;;8.86;42.53
49915;BME280;35806;47.958;13.158;2023-02-17T09:24:03;95481.02;;;8.63;43.00
49915;BME280;35806;47.958;13.158;2023-02-17T09:26:30;95488.16;;;9.12;42.43
49915;BME280;35806;47.958;13.158;2023-02-17T09:28:58;95489.71;;;9.05;42.60
49915;BME280;35806;47.958;13.158;2023-02-17T09:31:26;95494.50;;;9.35;42.02
49915;BME280;35806;47.958;13.158;2023-02-17T09:33:54;95496.89;;;8.27;42.08
49915;BME280;35806;47.958;13.158;2023-02-17T09:36:22;95504.58;;;8.96;42.12
49915;BME280;35806;47.958;13.158;2023-02-17T09:38:51;95504.76;;;8.95;41.72
49915;BME280;35806;47.958;13.158;2023-02-17T09:41:22;95502.28;;;8.79;42.24
49915;BME280;35806;47.958;13.158;2023-02-17T09:43:50;95509.82;;;9.06;43.06
49915;BME280;35806;47.958;13.158;2023-02-17T09:46:23;95510.45;;;8.93;42.92
49915;BME280;35806;47.958;13.158;2023-02-17T09:48:55;95508.51;;;8.55;42.42
49915;BME280;35806;47.958;13.158;2023-02-17T09:51:28;95509.80;;;8.64;41.64
49915;BME280;35806;47.958;13.158;2023-02-17T09:54:05;95513.00;;;8.69;41.14
49915;BME280;35806;47.958;13.158;2023-02-17T09:56:37;95507.10;;;9.46;41.72
49915;BME280;35806;47.958;13.158;2023-02-17T09:59:10;95508.03;;;9.49;41.50
49915;BME280;35806;47.958;13.158;2023-02-17T10:01:40;95509.87;;;9.04;41.75
49915;BME280;35806;47.958;13.158;2023-02-17T10:04:13;95509.73;;;8.81;42.09
49915;BME280;35806;47.958;13.158;2023-02-17T10:06:44;95503.29;;;8.60;42.55
49915;BME280;35806;47.958;13.158;2023-02-17T10:09:16;95511.56;;;8.05;42.65
49915;BME280;35806;47.958;13.158;2023-02-17T10:11:51;95507.44;;;7.53;43.07
49915;BME280;35806;47.958;13.158;2023-02-17T10:14:27;95505.60;;;8.46;42.54
49915;BME280;35806;47.958;13.158;2023-02-17T10:17:04;95517.60;;;8.16;44.74
49915;BME280;35806;47.958;13.158;2023-02-17T10:19:37;95516.15;;;7.90;47.35
49915;BME280;35806;47.958;13.158;2023-02-17T10:22:17;95514.23;;;7.50;51.22
49915;BME280;35806;47.958;13.158;2023-02-17T10:24:45;95517.73;;;6.82;55.56
49915;BME280;35806;47.958;13.158;2023-02-17T10:27:23;95515.67;;;7.29;55.33
49915;BME280;35806;47.958;13.158;2023-02-17T10:30:06;95503.31;;;7.15;57.17
49915;BME280;35806;47.958;13.158;2023-02-17T10:32:41;95507.97;;;7.43;57.06
49915;BME280;35806;47.958;13.158;2023-02-17T10:35:14;95508.39;;;6.99;58.05
49915;BME280;35806;47.958;13.158;2023-02-17T10:37:46;95505.35;;;7.01;57.34
49915;BME280;35806;47.958;13.158;2023-02-17T10:40:18;95504.83;;;6.56;58.21
49915;BME280;35806;47.958;13.158;2023-02-17T10:42:47;95503.67;;;6.80;57.41
49915;BME280;35806;47.958;13.158;2023-02-17T10:45:24;95493.20;;;6.85;57.01
49915;BME280;35806;47.958;13.158;2023-02-17T10:47:57;95498.05;;;7.43;55.43
49915;BME280;35806;47.958;13.158;2023-02-17T10:50:28;95498.66;;;7.39;54.80
49915;BME280;35806;47.958;13.158;2023-02-17T10:52:56;95497.65;;;7.45;55.50
49915;BME280;35806;47.958;13.158;2023-02-17T10:55:31;95488.28;;;7.29;57.37
49915;BME280;35806;47.958;13.158;2023-02-17T10:58:05;95492.17;;;7.00;59.57
49915;BME280;35806;47.958;13.158;2023-02-17T11:00:37;95494.15;;;6.91;60.50
49915;BME280;35806;47.958;13.158;2023-02-17T11:03:04;95487.88;;;6.71;59.88
49915;BME280;35806;47.958;13.158;2023-02-17T11:05:33;95481.91;;;7.29;60.01
49915;BME280;35806;47.958;13.158;2023-02-17T11:08:05;95481.98;;;7.13;58.27
49915;BME280;35806;47.958;13.158;2023-02-17T11:10:35;95475.70;;;7.25;58.55
49915;BME280;35806;47.958;13.158;2023-02-17T11:13:16;95474.29;;;7.20;59.40
49915;BME280;35806;47.958;13.158;2023-02-17T11:15:53;95471.81;;;7.43;58.41
49915;BME280;35806;47.958;13.158;2023-02-17T11:18:22;95465.05;;;7.39;58.16
49915;BME280;35806;47.958;13.158;2023-02-17T11:21:00;95462.24;;;7.76;57.52
49915;BME280;35806;47.958;13.158;2023-02-17T11:23:29;95459.45;;;7.86;57.19
49915;BME280;35806;47.958;13.158;2023-02-17T11:26:00;95460.22;;;7.82;54.92
49915;BME280;35806;47.958;13.158;2023-02-17T11:28:32;95458.04;;;7.94;53.59
49915;BME280;35806;47.958;13.158;2023-02-17T11:31:00;95453.72;;;7.79;54.89
49915;BME280;35806;47.958;13.158;2023-02-17T11:33:31;95445.07;;;7.69;55.87
49915;BME280;35806;47.958;13.158;2023-02-17T11:36:01;95447.59;;;7.67;56.51
49915;BME280;35806;47.958;13.158;2023-02-17T11:38:33;95447.65;;;7.93;55.81
49915;BME280;35806;47.958;13.158;2023-02-17T11:41:08;95435.23;;;7.73;56.27
49915;BME280;35806;47.958;13.158;2023-02-17T11:43:36;95431.49;;;7.68;56.59
49915;BME280;35806;47.958;13.158;2023-02-17T11:46:13;95435.73;;;7.78;56.77
49915;BME280;35806;47.958;13.158;2023-02-17T11:48:59;95437.27;;;7.20;58.25
49915;BME280;35806;47.958;13.158;2023-02-17T11:51:39;95431.39;;;7.73;57.69
49915;BME280;35806;47.958;13.158;2023-02-17T11:54:17;95429.18;;;7.96;56.86
49915;BME280;35806;47.958;13.158;2023-02-17T11:56:58;95425.52;;;7.94;57.62
49915;BME280;35806;47.958;13.158;2023-02-17T11:59:43;95419.05;;;7.97;58.13
49915;BME280;35806;47.958;13.158;2023-02-17T12:02:22;95419.96;;;8.52;56.60
49915;BME280;35806;47.958;13.158;2023-02-17T12:05:04;95415.97;;;8.28;56.85
49915;BME280;35806;47.958;13.158;2023-02-17T12:07:49;95411.95;;;8.44;56.05
49915;BME280;35806;47.958;13.158;2023-02-17T12:10:25;95412.53;;;8.58;56.57
49915;BME280;35806;47.958;13.158;2023-02-17T12:13:09;95411.54;;;8.28;56.40
49915;BME280;35806;47.958;13.158;2023-02-17T12:15:48;95407.43;;;8.63;55.60
49915;BME280;35806;47.958;13.158;2023-02-17T12:18:30;95400.68;;;8.97;54.37
49915;BME280;35806;47.958;13.158;2023-02-17T12:21:06;95399.06;;;8.55;55.08
49915;BME280;35806;47.958;13.158;2023-02-17T12:23:53;95389.64;;;8.76;53.70
49915;BME280;35806;47.958;13.158;2023-02-17T12:26:33;95390.49;;;9.06;53.01
49915;BME280;35806;47.958;13.158;2023-02-17T12:29:32;95385.84;;;9.28;52.27
49915;BME280;35806;47.958;13.158;2023-02-17T12:32:16;95383.09;;;9.02;52.27
49915;BME280;35806;47.958;13.158;2023-02-17T12:34:52;95375.20;;;9.11;51.88
49915;BME280;35806;47.958;13.158;2023-02-17T12:37:26;95379.50;;;8.90;52.39
49915;BME280;35806;47.958;13.158;2023-02-17T12:39:56;95372.71;;;8.94;53.04
49915;BME280;35806;47.958;13.158;2023-02-17T12:42:30;95370.48;;;9.11;53.56
49915;BME280;35806;47.958;13.158;2023-02-17T12:45:03;95363.37;;;8.33;54.44
49915;BME280;35806;47.958;13.158;2023-02-17T12:47:38;95358.40;;;9.65;51.05
49915;BME280;35806;47.958;13.158;2023-02-17T12:50:18;95359.31;;;9.91;50.68
49915;BME280;35806;47.958;13.158;2023-02-17T12:52:52;95356.13;;;9.35;52.32
49915;BME280;35806;47.958;13.158;2023-02-17T12:55:29;95350.01;;;9.10;52.58
49915;BME280;35806;47.958;13.158;2023-02-17T12:58:03;95346.92;;;9.24;51.80
49915;BME280;35806;47.958;13.158;2023-02-17T13:00:51;95344.55;;;9.63;50.97
49915;BME280;35806;47.958;13.158;2023-02-17T13:03:20;95341.81;;;10.10;51.15
49915;BME280;35806;47.958;13.158;2023-02-17T13:05:54;95347.29;;;10.31;50.12
49915;BME280;35806;47.958;13.158;2023-02-17T13:08:29;95337.32;;;9.69;50.95
49915;BME280;35806;47.958;13.158;2023-02-17T13:11:01;95340.47;;;10.49;50.31
49915;BME280;35806;47.958;13.158;2023-02-17T13:13:31;95340.11;;;10.68;49.82
49915;BME280;35806;47.958;13.158;2023-02-17T13:16:03;95338.66;;;9.71;49.61
49915;BME280;35806;47.958;13.158;2023-02-17T13:18:33;95337.56;;;9.69;50.13
49915;BME280;35806;47.958;13.158;2023-02-17T13:21:13;95337.46;;;10.55;49.56
49915;BME280;35806;47.958;13.158;2023-02-17T13:23:42;95332.29;;;10.42;48.91
49915;BME280;35806;47.958;13.158;2023-02-17T13:26:24;95335.80;;;10.61;49.78
49915;BME280;35806;47.958;13.158;2023-02-17T13:28:53;95329.26;;;10.37;49.86
49915;BME280;35806;47.958;13.158;2023-02-17T13:31:22;95333.73;;;10.46;49.31
49915;BME280;35806;47.958;13.158;2023-02-17T13:33:52;95331.73;;;10.27;48.97